^^
Saratoga-Weather Station Historical Data
Daily Summary for February 27, 2021 Units:  Both    English   Metric
Daily Weekly Monthly Yearly Custom
  High: Low: Average:
Temperature: 49.6 °F /  9.8 °C 35.6 °F /  2 °C 41.9 °F /  5.5 °C
Dew Point: 38.1 °F /  3.4 °C 32.7 °F /  0.4 °C 35.4 °F /  1.9 °C
Humidity: 90% 58% 78%
Wind Speed: 9mph /  14.5km/h - 2.1mph /  3.4km/h
Wind Gust: 14mph /  22.5km/h - -
Wind- - SSE
Pressure: 30.7 in /  1037.9 hPa 30.6 in /  1035.2 hPa -
Precipitation: 0 in /  0.0 mm    
Historical Graphs
 
 
Tabular Data for February 27, 2021
Time Temperature Dew Point Pressure Wind Wind Speed Wind Gust Humidity Rainfall Rate (Hourly) solar
00:02 37.8 °F /  3.2 °C 34.5 °F /  1.4 °C 30.6in /  1035.6hPa Calm     88% 0in /  0.0mm 0 W/m2
00:07 37.8 °F /  3.2 °C 34.5 °F /  1.4 °C 30.6in /  1035.6hPa Calm     88% 0in /  0.0mm 0 W/m2
00:12 37.6 °F /  3.1 °C 34.3 °F /  1.3 °C 30.6in /  1035.6hPa Calm     88% 0in /  0.0mm 0 W/m2
00:17 37.6 °F /  3.1 °C 34.3 °F /  1.3 °C 30.6in /  1035.6hPa Calm     88% 0in /  0.0mm 0 W/m2
00:27 37.2 °F /  2.9 °C 34 °F /  1.1 °C 30.6in /  1035.6hPa Calm   1mph /  1.6km/h 88% 0in /  0.0mm 0 W/m2
00:32 37.6 °F /  3.1 °C 34.3 °F /  1.3 °C 30.6in /  1035.6hPa Calm   1mph /  1.6km/h 88% 0in /  0.0mm 0 W/m2
00:37 37.8 °F /  3.2 °C 34.5 °F /  1.4 °C 30.6in /  1035.6hPa Calm   1mph /  1.6km/h 88% 0in /  0.0mm 0 W/m2
00:42 37.8 °F /  3.2 °C 34.5 °F /  1.4 °C 30.6in /  1035.6hPa NE 0.9mph /  1.4km/h 1mph /  1.6km/h 88% 0in /  0.0mm 0 W/m2
00:47 37.8 °F /  3.2 °C 34.5 °F /  1.4 °C 30.6in /  1035.9hPa SE 0.9mph /  1.4km/h 2mph /  3.2km/h 88% 0in /  0.0mm 0 W/m2
00:52 37.8 °F /  3.2 °C 34.2 °F /  1.2 °C 30.6in /  1035.9hPa SSE 0.9mph /  1.4km/h 2mph /  3.2km/h 87% 0in /  0.0mm 0 W/m2
00:57 37.6 °F /  3.1 °C 34 °F /  1.1 °C 30.6in /  1035.9hPa SSE 0.9mph /  1.4km/h 2mph /  3.2km/h 87% 0in /  0.0mm 0 W/m2
01:02 37.4 °F /  3 °C 33.8 °F /  1 °C 30.6in /  1035.9hPa SSE 0.9mph /  1.4km/h 2mph /  3.2km/h 87% 0in /  0.0mm 0 W/m2
01:07 37.6 °F /  3.1 °C 34.3 °F /  1.3 °C 30.6in /  1035.9hPa NW 0.9mph /  1.4km/h 2mph /  3.2km/h 88% 0in /  0.0mm 0 W/m2
01:12 37.6 °F /  3.1 °C 34 °F /  1.1 °C 30.6in /  1035.9hPa WNW 2.9mph /  4.7km/h 3mph /  4.8km/h 87% 0in /  0.0mm 0 W/m2
01:17 37.8 °F /  3.2 °C 34.2 °F /  1.2 °C 30.6in /  1035.9hPa NW 2mph /  3.2km/h 2mph /  3.2km/h 87% 0in /  0.0mm 0 W/m2
01:22 37.9 °F /  3.3 °C 34.3 °F /  1.3 °C 30.6in /  1035.9hPa NW 0.9mph /  1.4km/h 3mph /  4.8km/h 87% 0in /  0.0mm 0 W/m2
01:27 37.9 °F /  3.3 °C 34.2 °F /  1.2 °C 30.6in /  1035.9hPa NW 0.9mph /  1.4km/h 2mph /  3.2km/h 86% 0in /  0.0mm 0 W/m2
01:32 37.9 °F /  3.3 °C 34.2 °F /  1.2 °C 30.6in /  1035.9hPa NNW 2.9mph /  4.7km/h 4mph /  6.4km/h 86% 0in /  0.0mm 0 W/m2
01:37 38.1 °F /  3.4 °C 34.3 °F /  1.3 °C 30.6in /  1035.9hPa NW 2mph /  3.2km/h 6mph /  9.7km/h 86% 0in /  0.0mm 0 W/m2
01:42 38.5 °F /  3.6 °C 34.3 °F /  1.3 °C 30.6in /  1035.9hPa WNW 2.9mph /  4.7km/h 3mph /  4.8km/h 85% 0in /  0.0mm 0 W/m2
01:47 38.5 °F /  3.6 °C 34.3 °F /  1.3 °C 30.6in /  1035.9hPa WNW 4mph /  6.4km/h 4mph /  6.4km/h 85% 0in /  0.0mm 0 W/m2
01:52 38.5 °F /  3.6 °C 34.2 °F /  1.2 °C 30.6in /  1035.9hPa WNW 2mph /  3.2km/h 4mph /  6.4km/h 84% 0in /  0.0mm 0 W/m2
01:57 38.5 °F /  3.6 °C 34.3 °F /  1.3 °C 30.6in /  1036.2hPa Calm   3mph /  4.8km/h 85% 0in /  0.0mm 0 W/m2
02:02 38.7 °F /  3.7 °C 34.2 °F /  1.2 °C 30.6in /  1036.2hPa West 2mph /  3.2km/h 4mph /  6.4km/h 84% 0in /  0.0mm 0 W/m2
02:07 38.7 °F /  3.7 °C 34.2 °F /  1.2 °C 30.6in /  1036.2hPa North 0.9mph /  1.4km/h 6mph /  9.7km/h 84% 0in /  0.0mm 0 W/m2
02:12 38.7 °F /  3.7 °C 34.2 °F /  1.2 °C 30.6in /  1036.2hPa NNW 2.9mph /  4.7km/h 3mph /  4.8km/h 84% 0in /  0.0mm 0 W/m2
02:17 38.5 °F /  3.6 °C 34.2 °F /  1.2 °C 30.6in /  1036.2hPa NW 2mph /  3.2km/h 6mph /  9.7km/h 84% 0in /  0.0mm 0 W/m2
02:22 38.5 °F /  3.6 °C 34.2 °F /  1.2 °C 30.6in /  1036.2hPa North 2.9mph /  4.7km/h 6mph /  9.7km/h 84% 0in /  0.0mm 0 W/m2
02:27 38.5 °F /  3.6 °C 34.2 °F /  1.2 °C 30.6in /  1036.2hPa West 2mph /  3.2km/h 2mph /  3.2km/h 84% 0in /  0.0mm 0 W/m2
02:32 38.5 °F /  3.6 °C 34.2 °F /  1.2 °C 30.6in /  1036.2hPa WNW 2mph /  3.2km/h 6mph /  9.7km/h 84% 0in /  0.0mm 0 W/m2
02:37 38.5 °F /  3.6 °C 34.3 °F /  1.3 °C 30.6in /  1036.2hPa WNW 0.9mph /  1.4km/h 5mph /  8km/h 85% 0in /  0.0mm 0 W/m2
02:42 38.5 °F /  3.6 °C 34.2 °F /  1.2 °C 30.6in /  1036.2hPa WNW 0.9mph /  1.4km/h 3mph /  4.8km/h 84% 0in /  0.0mm 0 W/m2
02:47 38.7 °F /  3.7 °C 34.2 °F /  1.2 °C 30.6in /  1036.2hPa NW 0.9mph /  1.4km/h 5mph /  8km/h 84% 0in /  0.0mm 0 W/m2
02:52 38.5 °F /  3.6 °C 34.2 °F /  1.2 °C 30.6in /  1036.2hPa East 2mph /  3.2km/h 5mph /  8km/h 84% 0in /  0.0mm 0 W/m2
02:57 38.5 °F /  3.6 °C 34.2 °F /  1.2 °C 30.6in /  1036.2hPa NW 0.9mph /  1.4km/h 2mph /  3.2km/h 84% 0in /  0.0mm 0 W/m2
03:02 38.5 °F /  3.6 °C 34.2 °F /  1.2 °C 30.6in /  1036.2hPa WNW 2mph /  3.2km/h 5mph /  8km/h 84% 0in /  0.0mm 0 W/m2
03:07 38.5 °F /  3.6 °C 34.3 °F /  1.3 °C 30.6in /  1036.2hPa NW 2mph /  3.2km/h 4mph /  6.4km/h 85% 0in /  0.0mm 0 W/m2
03:12 38.5 °F /  3.6 °C 34.3 °F /  1.3 °C 30.6in /  1036.2hPa WNW 2mph /  3.2km/h 5mph /  8km/h 85% 0in /  0.0mm 0 W/m2
03:17 38.5 °F /  3.6 °C 34.2 °F /  1.2 °C 30.6in /  1036.2hPa WNW 4mph /  6.4km/h 5mph /  8km/h 84% 0in /  0.0mm 0 W/m2
03:22 38.5 °F /  3.6 °C 34.2 °F /  1.2 °C 30.6in /  1036.2hPa West 2mph /  3.2km/h 2mph /  3.2km/h 84% 0in /  0.0mm 0 W/m2
03:27 38.5 °F /  3.6 °C 34.3 °F /  1.3 °C 30.6in /  1036.2hPa WSW 2mph /  3.2km/h 3mph /  4.8km/h 85% 0in /  0.0mm 0 W/m2
03:37 38.5 °F /  3.6 °C 34.3 °F /  1.3 °C 30.6in /  1036.2hPa WNW 4mph /  6.4km/h 4mph /  6.4km/h 85% 0in /  0.0mm 0 W/m2
03:42 38.5 °F /  3.6 °C 34.3 °F /  1.3 °C 30.6in /  1036.2hPa ENE 2mph /  3.2km/h 5mph /  8km/h 85% 0in /  0.0mm 0 W/m2
03:47 38.5 °F /  3.6 °C 34.3 °F /  1.3 °C 30.6in /  1036.2hPa WNW 2.9mph /  4.7km/h 4mph /  6.4km/h 85% 0in /  0.0mm 0 W/m2
03:52 38.5 °F /  3.6 °C 34.3 °F /  1.3 °C 30.6in /  1036.2hPa NNW 2mph /  3.2km/h 3mph /  4.8km/h 85% 0in /  0.0mm 0 W/m2
03:57 38.3 °F /  3.5 °C 34.2 °F /  1.2 °C 30.6in /  1036.2hPa West 4mph /  6.4km/h 6mph /  9.7km/h 85% 0in /  0.0mm 0 W/m2
04:02 38.3 °F /  3.5 °C 34.2 °F /  1.2 °C 30.6in /  1036.2hPa WSW 0.9mph /  1.4km/h 7mph /  11.3km/h 85% 0in /  0.0mm 0 W/m2
04:07 38.1 °F /  3.4 °C 34 °F /  1.1 °C 30.6in /  1036.2hPa WNW 2.9mph /  4.7km/h 6mph /  9.7km/h 85% 0in /  0.0mm 0 W/m2
04:12 38.1 °F /  3.4 °C 34 °F /  1.1 °C 30.6in /  1036.2hPa WNW 2.9mph /  4.7km/h 4mph /  6.4km/h 85% 0in /  0.0mm 0 W/m2
04:17 37.9 °F /  3.3 °C 33.8 °F /  1 °C 30.6in /  1036.2hPa WNW 2.9mph /  4.7km/h 4mph /  6.4km/h 85% 0in /  0.0mm 0 W/m2
04:22 37.9 °F /  3.3 °C 34.2 °F /  1.2 °C 30.6in /  1036.2hPa West 2mph /  3.2km/h 7mph /  11.3km/h 86% 0in /  0.0mm 0 W/m2
04:27 37.8 °F /  3.2 °C 34 °F /  1.1 °C 30.6in /  1036.2hPa WNW 2mph /  3.2km/h 4mph /  6.4km/h 86% 0in /  0.0mm 0 W/m2
04:32 37.8 °F /  3.2 °C 34 °F /  1.1 °C 30.6in /  1036.2hPa West 2.9mph /  4.7km/h 7mph /  11.3km/h 86% 0in /  0.0mm 0 W/m2
04:37 37.8 °F /  3.2 °C 34 °F /  1.1 °C 30.6in /  1036.2hPa WNW 4mph /  6.4km/h 4mph /  6.4km/h 86% 0in /  0.0mm 0 W/m2
04:42 37.8 °F /  3.2 °C 34 °F /  1.1 °C 30.6in /  1036.2hPa NNW 2.9mph /  4.7km/h 8mph /  12.9km/h 86% 0in /  0.0mm 0 W/m2
04:47 37.8 °F /  3.2 °C 34 °F /  1.1 °C 30.6in /  1036.2hPa WNW 2mph /  3.2km/h 7mph /  11.3km/h 86% 0in /  0.0mm 0 W/m2
04:52 37.6 °F /  3.1 °C 33.8 °F /  1 °C 30.6in /  1036.2hPa WNW 2.9mph /  4.7km/h 4mph /  6.4km/h 86% 0in /  0.0mm 0 W/m2
04:57 37.4 °F /  3 °C 33.8 °F /  1 °C 30.6in /  1036.2hPa WSW 4mph /  6.4km/h 5mph /  8km/h 87% 0in /  0.0mm 0 W/m2
05:02 37.2 °F /  2.9 °C 33.8 °F /  1 °C 30.6in /  1036.2hPa WNW 2mph /  3.2km/h 4mph /  6.4km/h 87% 0in /  0.0mm 0 W/m2
05:07 37.2 °F /  2.9 °C 33.8 °F /  1 °C 30.6in /  1036.2hPa Calm   2mph /  3.2km/h 87% 0in /  0.0mm 0 W/m2
05:12 37 °F /  2.8 °C 33.6 °F /  0.9 °C 30.6in /  1036.2hPa West 0.9mph /  1.4km/h 4mph /  6.4km/h 87% 0in /  0.0mm 0 W/m2
05:17 36.9 °F /  2.7 °C 33.4 °F /  0.8 °C 30.6in /  1036.2hPa Calm   2mph /  3.2km/h 87% 0in /  0.0mm 0 W/m2
05:22 36.7 °F /  2.6 °C 33.3 °F /  0.7 °C 30.6in /  1036.2hPa West 2mph /  3.2km/h 3mph /  4.8km/h 87% 0in /  0.0mm 0 W/m2
05:27 36.3 °F /  2.4 °C 33.1 °F /  0.6 °C 30.6in /  1036.6hPa Calm   2mph /  3.2km/h 88% 0in /  0.0mm 0 W/m2
05:32 36.1 °F /  2.3 °C 32.9 °F /  0.5 °C 30.6in /  1036.6hPa Calm   2mph /  3.2km/h 88% 0in /  0.0mm 0 W/m2
05:37 36 °F /  2.2 °C 32.7 °F /  0.4 °C 30.6in /  1036.6hPa WNW 0.9mph /  1.4km/h 1mph /  1.6km/h 88% 0in /  0.0mm 0 W/m2
05:42 35.8 °F /  2.1 °C 32.9 °F /  0.5 °C 30.6in /  1036.6hPa WSW 0.9mph /  1.4km/h 1mph /  1.6km/h 89% 0in /  0.0mm 0 W/m2
05:47 35.8 °F /  2.1 °C 32.9 °F /  0.5 °C 30.6in /  1036.6hPa Calm   5mph /  8km/h 89% 0in /  0.0mm 0 W/m2
05:52 35.8 °F /  2.1 °C 33.1 °F /  0.6 °C 30.6in /  1036.6hPa Calm   2mph /  3.2km/h 90% 0in /  0.0mm 0 W/m2
05:57 35.8 °F /  2.1 °C 33.1 °F /  0.6 °C 30.6in /  1036.6hPa ESE 0.9mph /  1.4km/h 5mph /  8km/h 90% 0in /  0.0mm 0 W/m2
06:02 36 °F /  2.2 °C 33.3 °F /  0.7 °C 30.6in /  1036.6hPa ENE 0.9mph /  1.4km/h 5mph /  8km/h 90% 0in /  0.0mm 0 W/m2
06:07 36 °F /  2.2 °C 33.3 °F /  0.7 °C 30.6in /  1036.6hPa Calm   2mph /  3.2km/h 90% 0in /  0.0mm 0 W/m2
06:12 36 °F /  2.2 °C 33.3 °F /  0.7 °C 30.6in /  1036.6hPa NNW 0.9mph /  1.4km/h 5mph /  8km/h 90% 0in /  0.0mm 0 W/m2
06:17 36 °F /  2.2 °C 33.3 °F /  0.7 °C 30.6in /  1036.6hPa West 2.9mph /  4.7km/h 4mph /  6.4km/h 90% 0in /  0.0mm 0 W/m2
06:22 36 °F /  2.2 °C 33.3 °F /  0.7 °C 30.6in /  1036.6hPa Calm   2mph /  3.2km/h 90% 0in /  0.0mm 0 W/m2
06:27 36 °F /  2.2 °C 33.3 °F /  0.7 °C 30.6in /  1036.6hPa ENE 2mph /  3.2km/h 3mph /  4.8km/h 90% 0in /  0.0mm 0 W/m2
06:32 36 °F /  2.2 °C 33.1 °F /  0.6 °C 30.6in /  1036.9hPa NW 0.9mph /  1.4km/h 2mph /  3.2km/h 89% 0in /  0.0mm 0 W/m2
06:37 36 °F /  2.2 °C 33.1 °F /  0.6 °C 30.6in /  1036.9hPa Calm   2mph /  3.2km/h 89% 0in /  0.0mm 0 W/m2
06:42 36 °F /  2.2 °C 33.1 °F /  0.6 °C 30.6in /  1036.9hPa NNW 2mph /  3.2km/h 2mph /  3.2km/h 89% 0in /  0.0mm 0 W/m2
06:52 35.8 °F /  2.1 °C 32.9 °F /  0.5 °C 30.6in /  1036.9hPa Calm   3mph /  4.8km/h 89% 0in /  0.0mm 0 W/m2
06:57 36 °F /  2.2 °C 33.1 °F /  0.6 °C 30.6in /  1036.9hPa WNW 0.9mph /  1.4km/h 3mph /  4.8km/h 89% 0in /  0.0mm 0 W/m2
07:02 36 °F /  2.2 °C 33.3 °F /  0.7 °C 30.6in /  1036.9hPa NNE 0.9mph /  1.4km/h 3mph /  4.8km/h 90% 0in /  0.0mm 0 W/m2
07:07 36 °F /  2.2 °C 33.3 °F /  0.7 °C 30.6in /  1036.9hPa North 2.9mph /  4.7km/h 5mph /  8km/h 90% 0in /  0.0mm 0 W/m2
07:13 36 °F /  2.2 °C 33.3 °F /  0.7 °C 30.6in /  1036.9hPa North 0.9mph /  1.4km/h 5mph /  8km/h 90% 0in /  0.0mm 0 W/m2
07:18 35.8 °F /  2.1 °C 32.9 °F /  0.5 °C 30.6in /  1037.2hPa East 0.9mph /  1.4km/h 3mph /  4.8km/h 89% 0in /  0.0mm 0 W/m2
07:23 35.8 °F /  2.1 °C 32.9 °F /  0.5 °C 30.6in /  1036.9hPa Calm   5mph /  8km/h 89% 0in /  0.0mm 0 W/m2
07:28 35.8 °F /  2.1 °C 33.1 °F /  0.6 °C 30.6in /  1037.2hPa SE 0.9mph /  1.4km/h 7mph /  11.3km/h 90% 0in /  0.0mm 5 W/m2
07:33 35.8 °F /  2.1 °C 32.9 °F /  0.5 °C 30.6in /  1037.2hPa East 0.9mph /  1.4km/h 3mph /  4.8km/h 89% 0in /  0.0mm 9 W/m2
07:38 35.8 °F /  2.1 °C 33.1 °F /  0.6 °C 30.6in /  1037.2hPa Calm   6mph /  9.7km/h 90% 0in /  0.0mm 12 W/m2
07:43 35.6 °F /  2 °C 32.7 °F /  0.4 °C 30.6in /  1037.2hPa NNE 0.9mph /  1.4km/h 4mph /  6.4km/h 89% 0in /  0.0mm 14 W/m2
07:48 35.6 °F /  2 °C 32.7 °F /  0.4 °C 30.6in /  1037.2hPa South 0.9mph /  1.4km/h 5mph /  8km/h 89% 0in /  0.0mm 18 W/m2
07:53 35.6 °F /  2 °C 32.7 °F /  0.4 °C 30.6in /  1037.2hPa NW 2mph /  3.2km/h 4mph /  6.4km/h 89% 0in /  0.0mm 19 W/m2
07:58 35.6 °F /  2 °C 32.7 °F /  0.4 °C 30.6in /  1037.2hPa WSW 0.9mph /  1.4km/h 4mph /  6.4km/h 89% 0in /  0.0mm 21 W/m2
08:03 35.6 °F /  2 °C 32.7 °F /  0.4 °C 30.6in /  1037.2hPa NW 2.9mph /  4.7km/h 3mph /  4.8km/h 89% 0in /  0.0mm 25 W/m2
08:08 35.6 °F /  2 °C 32.9 °F /  0.5 °C 30.6in /  1037.2hPa NNW 2.9mph /  4.7km/h 3mph /  4.8km/h 90% 0in /  0.0mm 26 W/m2
08:13 35.8 °F /  2.1 °C 33.1 °F /  0.6 °C 30.6in /  1037.2hPa ESE 2mph /  3.2km/h 4mph /  6.4km/h 90% 0in /  0.0mm 30 W/m2
08:18 35.8 °F /  2.1 °C 33.1 °F /  0.6 °C 30.6in /  1037.6hPa NE 0.9mph /  1.4km/h 1mph /  1.6km/h 90% 0in /  0.0mm 35 W/m2
08:23 36 °F /  2.2 °C 33.1 °F /  0.6 °C 30.6in /  1037.6hPa NE 0.9mph /  1.4km/h 4mph /  6.4km/h 89% 0in /  0.0mm 37 W/m2
08:28 36 °F /  2.2 °C 33.1 °F /  0.6 °C 30.6in /  1037.6hPa NE 0.9mph /  1.4km/h 2mph /  3.2km/h 89% 0in /  0.0mm 39 W/m2
08:33 36.1 °F /  2.3 °C 33.3 °F /  0.7 °C 30.6in /  1037.6hPa NNW 2mph /  3.2km/h 4mph /  6.4km/h 89% 0in /  0.0mm 47 W/m2
08:38 36.3 °F /  2.4 °C 33.6 °F /  0.9 °C 30.6in /  1037.6hPa ESE 0.9mph /  1.4km/h 3mph /  4.8km/h 90% 0in /  0.0mm 44 W/m2
08:53 37 °F /  2.8 °C 34.2 °F /  1.2 °C 30.6in /  1037.6hPa West 0.9mph /  1.4km/h 3mph /  4.8km/h 89% 0in /  0.0mm 139 W/m2
08:58 37.2 °F /  2.9 °C 34.3 °F /  1.3 °C 30.6in /  1037.6hPa NW 2mph /  3.2km/h 4mph /  6.4km/h 89% 0in /  0.0mm 155 W/m2
09:03 37.6 °F /  3.1 °C 34.7 °F /  1.5 °C 30.6in /  1037.6hPa NNW 0.9mph /  1.4km/h 4mph /  6.4km/h 89% 0in /  0.0mm 171 W/m2
09:08 37.9 °F /  3.3 °C 34.7 °F /  1.5 °C 30.6in /  1037.6hPa NNW 2mph /  3.2km/h 4mph /  6.4km/h 88% 0in /  0.0mm 162 W/m2
09:13 38.1 °F /  3.4 °C 34.9 °F /  1.6 °C 30.6in /  1037.6hPa Calm   2mph /  3.2km/h 88% 0in /  0.0mm 130 W/m2
09:18 38.5 °F /  3.6 °C 35.2 °F /  1.8 °C 30.6in /  1037.6hPa East 2mph /  3.2km/h 3mph /  4.8km/h 88% 0in /  0.0mm 98 W/m2
09:23 38.8 °F /  3.8 °C 35.2 °F /  1.8 °C 30.6in /  1037.6hPa SE 2mph /  3.2km/h 2mph /  3.2km/h 87% 0in /  0.0mm 195 W/m2
09:28 39.2 °F /  4 °C 35.6 °F /  2 °C 30.6in /  1037.6hPa North 0.9mph /  1.4km/h 2mph /  3.2km/h 87% 0in /  0.0mm 76 W/m2
09:33 39.6 °F /  4.2 °C 36 °F /  2.2 °C 30.6in /  1037.6hPa NE 0.9mph /  1.4km/h 5mph /  8km/h 87% 0in /  0.0mm 246 W/m2
09:38 39.9 °F /  4.4 °C 36.1 °F /  2.3 °C 30.6in /  1037.6hPa Calm   2mph /  3.2km/h 86% 0in /  0.0mm 255 W/m2
09:43 40.5 °F /  4.7 °C 36.7 °F /  2.6 °C 30.6in /  1037.6hPa NE 0.9mph /  1.4km/h 3mph /  4.8km/h 86% 0in /  0.0mm 267 W/m2
09:48 40.8 °F /  4.9 °C 36.7 °F /  2.6 °C 30.6in /  1037.6hPa North 2mph /  3.2km/h 7mph /  11.3km/h 85% 0in /  0.0mm 278 W/m2
09:53 41.4 °F /  5.2 °C 37.2 °F /  2.9 °C 30.7in /  1037.9hPa ESE 2mph /  3.2km/h 9mph /  14.5km/h 85% 0in /  0.0mm 301 W/m2
09:58 41.7 °F /  5.4 °C 36.9 °F /  2.7 °C 30.6in /  1037.6hPa East 2.9mph /  4.7km/h 4mph /  6.4km/h 83% 0in /  0.0mm 313 W/m2
10:03 42.1 °F /  5.6 °C 37.2 °F /  2.9 °C 30.6in /  1037.6hPa East 4.9mph /  7.9km/h 9mph /  14.5km/h 83% 0in /  0.0mm 327 W/m2
10:08 42.4 °F /  5.8 °C 37.4 °F /  3 °C 30.7in /  1037.9hPa ENE 6mph /  9.7km/h 12mph /  19.3km/h 82% 0in /  0.0mm 336 W/m2
10:13 42.4 °F /  5.8 °C 37 °F /  2.8 °C 30.7in /  1037.9hPa NE 4mph /  6.4km/h 8mph /  12.9km/h 81% 0in /  0.0mm 350 W/m2
10:18 42.6 °F /  5.9 °C 36.9 °F /  2.7 °C 30.6in /  1037.6hPa ENE 6mph /  9.7km/h 10mph /  16.1km/h 80% 0in /  0.0mm 367 W/m2
10:23 42.4 °F /  5.8 °C 36.7 °F /  2.6 °C 30.7in /  1037.9hPa North 2mph /  3.2km/h 6mph /  9.7km/h 80% 0in /  0.0mm 369 W/m2
10:28 42.6 °F /  5.9 °C 37.2 °F /  2.9 °C 30.6in /  1037.6hPa NNW 4mph /  6.4km/h 9mph /  14.5km/h 81% 0in /  0.0mm 378 W/m2
10:33 43.2 °F /  6.2 °C 37.4 °F /  3 °C 30.7in /  1037.9hPa ENE 8.9mph /  14.3km/h 13mph /  20.9km/h 80% 0in /  0.0mm 394 W/m2
10:38 43.2 °F /  6.2 °C 37 °F /  2.8 °C 30.7in /  1037.9hPa ENE 8.1mph /  13km/h 8mph /  12.9km/h 79% 0in /  0.0mm 381 W/m2
10:43 43.2 °F /  6.2 °C 37 °F /  2.8 °C 30.7in /  1037.9hPa ESE 4mph /  6.4km/h 13mph /  20.9km/h 79% 0in /  0.0mm 410 W/m2
10:48 43.2 °F /  6.2 °C 37 °F /  2.8 °C 30.7in /  1037.9hPa ENE 4.9mph /  7.9km/h 6mph /  9.7km/h 79% 0in /  0.0mm 418 W/m2
10:53 43.5 °F /  6.4 °C 37.4 °F /  3 °C 30.7in /  1037.9hPa East 4mph /  6.4km/h 12mph /  19.3km/h 79% 0in /  0.0mm 427 W/m2
10:58 43.9 °F /  6.6 °C 37.4 °F /  3 °C 30.7in /  1037.9hPa West 2mph /  3.2km/h 8mph /  12.9km/h 78% 0in /  0.0mm 436 W/m2
11:03 44.1 °F /  6.7 °C 37.4 °F /  3 °C 30.7in /  1037.9hPa SSE 4mph /  6.4km/h 14mph /  22.5km/h 77% 0in /  0.0mm 443 W/m2
11:08 44.1 °F /  6.7 °C 37.4 °F /  3 °C 30.7in /  1037.9hPa East 4mph /  6.4km/h 9mph /  14.5km/h 77% 0in /  0.0mm 446 W/m2
11:13 44.1 °F /  6.7 °C 37.4 °F /  3 °C 30.7in /  1037.9hPa NE 4.9mph /  7.9km/h 14mph /  22.5km/h 77% 0in /  0.0mm 454 W/m2
11:18 44.4 °F /  6.9 °C 37.4 °F /  3 °C 30.7in /  1037.9hPa ENE 0.9mph /  1.4km/h 7mph /  11.3km/h 76% 0in /  0.0mm 452 W/m2
11:23 44.8 °F /  7.1 °C 37.4 °F /  3 °C 30.7in /  1037.9hPa ENE 2.9mph /  4.7km/h 12mph /  19.3km/h 75% 0in /  0.0mm 415 W/m2
11:28 45 °F /  7.2 °C 37.9 °F /  3.3 °C 30.7in /  1037.9hPa SSE 2mph /  3.2km/h 5mph /  8km/h 76% 0in /  0.0mm 369 W/m2
11:33 45.1 °F /  7.3 °C 37.4 °F /  3 °C 30.6in /  1037.6hPa NE 4mph /  6.4km/h 9mph /  14.5km/h 74% 0in /  0.0mm 221 W/m2
11:38 45 °F /  7.2 °C 37.6 °F /  3.1 °C 30.7in /  1037.9hPa NE 4mph /  6.4km/h 7mph /  11.3km/h 75% 0in /  0.0mm 200 W/m2
11:43 44.8 °F /  7.1 °C 37.4 °F /  3 °C 30.7in /  1037.9hPa ENE 4mph /  6.4km/h 10mph /  16.1km/h 75% 0in /  0.0mm 156 W/m2
11:48 44.8 °F /  7.1 °C 37.8 °F /  3.2 °C 30.6in /  1037.6hPa WNW 2.9mph /  4.7km/h 6mph /  9.7km/h 76% 0in /  0.0mm 308 W/m2
11:53 45 °F /  7.2 °C 38.1 °F /  3.4 °C 30.7in /  1037.9hPa NNW 4.9mph /  7.9km/h 5mph /  8km/h 77% 0in /  0.0mm 271 W/m2
11:58 45.3 °F /  7.4 °C 38.1 °F /  3.4 °C 30.6in /  1037.6hPa NE 2mph /  3.2km/h 5mph /  8km/h 76% 0in /  0.0mm 415 W/m2
12:03 45.3 °F /  7.4 °C 37.6 °F /  3.1 °C 30.6in /  1037.6hPa WSW 2.9mph /  4.7km/h 8mph /  12.9km/h 74% 0in /  0.0mm 490 W/m2
12:08 45.7 °F /  7.6 °C 37.6 °F /  3.1 °C 30.6in /  1037.6hPa NW 2.9mph /  4.7km/h 9mph /  14.5km/h 73% 0in /  0.0mm 454 W/m2
12:13 45.7 °F /  7.6 °C 37.6 °F /  3.1 °C 30.6in /  1037.6hPa NW 6mph /  9.7km/h 6mph /  9.7km/h 73% 0in /  0.0mm 517 W/m2
12:18 46 °F /  7.8 °C 37.9 °F /  3.3 °C 30.6in /  1037.6hPa ENE 2.9mph /  4.7km/h 5mph /  8km/h 73% 0in /  0.0mm 520 W/m2
12:28 46.4 °F /  8 °C 37.6 °F /  3.1 °C 30.6in /  1037.6hPa SE 2.9mph /  4.7km/h 8mph /  12.9km/h 71% 0in /  0.0mm 527 W/m2
12:38 47.1 °F /  8.4 °C 37.8 °F /  3.2 °C 30.6in /  1037.2hPa East 2.9mph /  4.7km/h 10mph /  16.1km/h 70% 0in /  0.0mm 540 W/m2
12:43 46.9 °F /  8.3 °C 37.2 °F /  2.9 °C 30.6in /  1037.2hPa North 2mph /  3.2km/h 5mph /  8km/h 69% 0in /  0.0mm 441 W/m2
12:48 46.6 °F /  8.1 °C 37.4 °F /  3 °C 30.6in /  1037.2hPa NNE 2mph /  3.2km/h 5mph /  8km/h 70% 0in /  0.0mm 128 W/m2
12:53 46.4 °F /  8 °C 37.2 °F /  2.9 °C 30.6in /  1037.2hPa ESE 2mph /  3.2km/h 9mph /  14.5km/h 70% 0in /  0.0mm 125 W/m2
12:58 46.6 °F /  8.1 °C 37 °F /  2.8 °C 30.6in /  1037.2hPa NNE 4.9mph /  7.9km/h 5mph /  8km/h 69% 0in /  0.0mm 81 W/m2
13:08 46.9 °F /  8.3 °C 37.2 °F /  2.9 °C 30.6in /  1036.9hPa East 2.9mph /  4.7km/h 6mph /  9.7km/h 69% 0in /  0.0mm 568 W/m2
13:13 47.1 °F /  8.4 °C 37.4 °F /  3 °C 30.6in /  1036.9hPa ENE 0.9mph /  1.4km/h 3mph /  4.8km/h 69% 0in /  0.0mm 519 W/m2
13:18 47.3 °F /  8.5 °C 37.2 °F /  2.9 °C 30.6in /  1036.9hPa SSE 2mph /  3.2km/h 9mph /  14.5km/h 68% 0in /  0.0mm 441 W/m2
13:23 47.7 °F /  8.7 °C 37.6 °F /  3.1 °C 30.6in /  1036.9hPa SSW 2.9mph /  4.7km/h 9mph /  14.5km/h 68% 0in /  0.0mm 167 W/m2
13:33 47.8 °F /  8.8 °C 37.4 °F /  3 °C 30.6in /  1036.9hPa NNW 4.9mph /  7.9km/h 8mph /  12.9km/h 67% 0in /  0.0mm 230 W/m2
13:38 47.8 °F /  8.8 °C 37.8 °F /  3.2 °C 30.6in /  1036.9hPa NE 2.9mph /  4.7km/h 7mph /  11.3km/h 68% 0in /  0.0mm 155 W/m2
13:43 47.8 °F /  8.8 °C 37.8 °F /  3.2 °C 30.6in /  1036.6hPa NNW 2mph /  3.2km/h 10mph /  16.1km/h 68% 0in /  0.0mm 149 W/m2
13:48 47.7 °F /  8.7 °C 37.2 °F /  2.9 °C 30.6in /  1036.6hPa West 2.9mph /  4.7km/h 8mph /  12.9km/h 67% 0in /  0.0mm 165 W/m2
13:53 47.7 °F /  8.7 °C 37.6 °F /  3.1 °C 30.6in /  1036.6hPa East 2.9mph /  4.7km/h 8mph /  12.9km/h 68% 0in /  0.0mm 153 W/m2
13:58 47.7 °F /  8.7 °C 37.2 °F /  2.9 °C 30.6in /  1036.6hPa NW 4mph /  6.4km/h 9mph /  14.5km/h 67% 0in /  0.0mm 151 W/m2
14:03 47.8 °F /  8.8 °C 37.4 °F /  3 °C 30.6in /  1036.2hPa North 4mph /  6.4km/h 9mph /  14.5km/h 67% 0in /  0.0mm 193 W/m2
14:08 47.8 °F /  8.8 °C 37.4 °F /  3 °C 30.6in /  1036.6hPa WSW 2mph /  3.2km/h 6mph /  9.7km/h 67% 0in /  0.0mm 146 W/m2
14:13 47.8 °F /  8.8 °C 37 °F /  2.8 °C 30.6in /  1036.2hPa East 2.9mph /  4.7km/h 11mph /  17.7km/h 66% 0in /  0.0mm 323 W/m2
14:18 47.8 °F /  8.8 °C 37 °F /  2.8 °C 30.6in /  1036.2hPa East 2mph /  3.2km/h 4mph /  6.4km/h 66% 0in /  0.0mm 186 W/m2
14:23 48.4 °F /  9.1 °C 37.6 °F /  3.1 °C 30.6in /  1036.2hPa ENE 4.9mph /  7.9km/h 8mph /  12.9km/h 66% 0in /  0.0mm 63 W/m2
14:28 48.4 °F /  9.1 °C 37.2 °F /  2.9 °C 30.6in /  1036.2hPa NNE 2.9mph /  4.7km/h 12mph /  19.3km/h 65% 0in /  0.0mm 209 W/m2
14:33 48.4 °F /  9.1 °C 37.2 °F /  2.9 °C 30.6in /  1036.2hPa ENE 2mph /  3.2km/h 4mph /  6.4km/h 65% 0in /  0.0mm 316 W/m2
14:38 48.7 °F /  9.3 °C 37 °F /  2.8 °C 30.6in /  1036.2hPa NW 8.1mph /  13km/h 12mph /  19.3km/h 64% 0in /  0.0mm 461 W/m2
14:43 49.1 °F /  9.5 °C 37 °F /  2.8 °C 30.6in /  1036.2hPa ENE 2mph /  3.2km/h 9mph /  14.5km/h 63% 0in /  0.0mm 448 W/m2
14:49 49.1 °F /  9.5 °C 37 °F /  2.8 °C 30.6in /  1036.2hPa East 8.1mph /  13km/h 8mph /  12.9km/h 63% 0in /  0.0mm 294 W/m2
14:54 48.7 °F /  9.3 °C 36.7 °F /  2.6 °C 30.6in /  1036.2hPa ESE 4mph /  6.4km/h 8mph /  12.9km/h 63% 0in /  0.0mm 213 W/m2
14:59 48.7 °F /  9.3 °C 36.7 °F /  2.6 °C 30.6in /  1035.9hPa ESE 2.9mph /  4.7km/h 9mph /  14.5km/h 63% 0in /  0.0mm 353 W/m2
15:04 48.9 °F /  9.4 °C 36.9 °F /  2.7 °C 30.6in /  1035.9hPa SE 8.1mph /  13km/h 10mph /  16.1km/h 63% 0in /  0.0mm 271 W/m2
15:09 48.9 °F /  9.4 °C 36.5 °F /  2.5 °C 30.6in /  1035.9hPa NW 4.9mph /  7.9km/h 11mph /  17.7km/h 62% 0in /  0.0mm 167 W/m2
15:14 48.9 °F /  9.4 °C 36.5 °F /  2.5 °C 30.6in /  1035.6hPa NNE 4mph /  6.4km/h 11mph /  17.7km/h 62% 0in /  0.0mm 134 W/m2
15:19 49.3 °F /  9.6 °C 37.2 °F /  2.9 °C 30.6in /  1035.6hPa West 2.9mph /  4.7km/h 7mph /  11.3km/h 63% 0in /  0.0mm 125 W/m2
15:24 49.5 °F /  9.7 °C 37 °F /  2.8 °C 30.6in /  1035.6hPa ENE 2.9mph /  4.7km/h 11mph /  17.7km/h 62% 0in /  0.0mm 195 W/m2
15:29 49.5 °F /  9.7 °C 36.5 °F /  2.5 °C 30.6in /  1035.9hPa NE 2mph /  3.2km/h 10mph /  16.1km/h 61% 0in /  0.0mm 327 W/m2
15:34 49.5 °F /  9.7 °C 36.5 °F /  2.5 °C 30.6in /  1035.6hPa ESE 0.9mph /  1.4km/h 4mph /  6.4km/h 61% 0in /  0.0mm 371 W/m2
15:39 49.6 °F /  9.8 °C 36.3 °F /  2.4 °C 30.6in /  1035.6hPa East 4mph /  6.4km/h 10mph /  16.1km/h 60% 0in /  0.0mm 237 W/m2
15:44 49.6 °F /  9.8 °C 36.3 °F /  2.4 °C 30.6in /  1035.6hPa ESE 0.9mph /  1.4km/h 6mph /  9.7km/h 60% 0in /  0.0mm 309 W/m2
15:49 49.6 °F /  9.8 °C 36 °F /  2.2 °C 30.6in /  1035.6hPa SSW 2.9mph /  4.7km/h 12mph /  19.3km/h 59% 0in /  0.0mm 246 W/m2
15:54 49.6 °F /  9.8 °C 36 °F /  2.2 °C 30.6in /  1035.6hPa Calm   7mph /  11.3km/h 59% 0in /  0.0mm 220 W/m2
15:59 49.6 °F /  9.8 °C 36.3 °F /  2.4 °C 30.6in /  1035.6hPa NE 2.9mph /  4.7km/h 5mph /  8km/h 60% 0in /  0.0mm 272 W/m2
16:04 49.6 °F /  9.8 °C 36 °F /  2.2 °C 30.6in /  1035.6hPa WSW 2.9mph /  4.7km/h 6mph /  9.7km/h 59% 0in /  0.0mm 297 W/m2
16:09 49.6 °F /  9.8 °C 36 °F /  2.2 °C 30.6in /  1035.6hPa WSW 4mph /  6.4km/h 6mph /  9.7km/h 59% 0in /  0.0mm 281 W/m2
16:14 49.6 °F /  9.8 °C 36 °F /  2.2 °C 30.6in /  1035.6hPa NE 2mph /  3.2km/h 6mph /  9.7km/h 59% 0in /  0.0mm 294 W/m2
16:19 49.6 °F /  9.8 °C 35.4 °F /  1.9 °C 30.6in /  1035.6hPa North 4mph /  6.4km/h 5mph /  8km/h 58% 0in /  0.0mm 281 W/m2
16:24 49.6 °F /  9.8 °C 35.4 °F /  1.9 °C 30.6in /  1035.6hPa SE 2mph /  3.2km/h 9mph /  14.5km/h 58% 0in /  0.0mm 269 W/m2
16:29 49.5 °F /  9.7 °C 35.2 °F /  1.8 °C 30.6in /  1035.6hPa ESE 4mph /  6.4km/h 6mph /  9.7km/h 58% 0in /  0.0mm 207 W/m2
16:34 49.3 °F /  9.6 °C 35.6 °F /  2 °C 30.6in /  1035.6hPa ENE 4.9mph /  7.9km/h 10mph /  16.1km/h 59% 0in /  0.0mm 90 W/m2
16:39 48.9 °F /  9.4 °C 35.2 °F /  1.8 °C 30.6in /  1035.6hPa NNW 0.9mph /  1.4km/h 7mph /  11.3km/h 59% 0in /  0.0mm 39 W/m2
16:49 48.7 °F /  9.3 °C 35.4 °F /  1.9 °C 30.6in /  1035.2hPa North 0.9mph /  1.4km/h 6mph /  9.7km/h 60% 0in /  0.0mm 49 W/m2
16:54 48.7 °F /  9.3 °C 35.4 °F /  1.9 °C 30.6in /  1035.6hPa NE 0.9mph /  1.4km/h 12mph /  19.3km/h 60% 0in /  0.0mm 32 W/m2
16:59 48.6 °F /  9.2 °C 35.8 °F /  2.1 °C 30.6in /  1035.6hPa SSW 2mph /  3.2km/h 5mph /  8km/h 61% 0in /  0.0mm 26 W/m2
17:04 48.4 °F /  9.1 °C 35.6 °F /  2 °C 30.6in /  1035.6hPa ESE 0.9mph /  1.4km/h 6mph /  9.7km/h 61% 0in /  0.0mm 25 W/m2
17:09 48.2 °F /  9 °C 35.8 °F /  2.1 °C 30.6in /  1035.6hPa NE 4.9mph /  7.9km/h 8mph /  12.9km/h 62% 0in /  0.0mm 25 W/m2
17:14 48 °F /  8.9 °C 35.6 °F /  2 °C 30.6in /  1035.6hPa NNE 2.9mph /  4.7km/h 6mph /  9.7km/h 62% 0in /  0.0mm 23 W/m2
17:19 47.8 °F /  8.8 °C 35.8 °F /  2.1 °C 30.6in /  1035.2hPa ENE 4mph /  6.4km/h 8mph /  12.9km/h 63% 0in /  0.0mm 21 W/m2
17:24 47.7 °F /  8.7 °C 35.6 °F /  2 °C 30.6in /  1035.6hPa ENE 2.9mph /  4.7km/h 7mph /  11.3km/h 63% 0in /  0.0mm 21 W/m2
17:29 47.5 °F /  8.6 °C 36 °F /  2.2 °C 30.6in /  1035.6hPa ENE 4mph /  6.4km/h 6mph /  9.7km/h 64% 0in /  0.0mm 19 W/m2
17:34 47.3 °F /  8.5 °C 35.8 °F /  2.1 °C 30.6in /  1035.6hPa ESE 2.9mph /  4.7km/h 5mph /  8km/h 64% 0in /  0.0mm 19 W/m2
17:44 46.9 °F /  8.3 °C 35.8 °F /  2.1 °C 30.6in /  1035.6hPa East 2.9mph /  4.7km/h 4mph /  6.4km/h 65% 0in /  0.0mm 16 W/m2
17:49 46.9 °F /  8.3 °C 35.8 °F /  2.1 °C 30.6in /  1035.6hPa WNW 2mph /  3.2km/h 9mph /  14.5km/h 65% 0in /  0.0mm 14 W/m2
17:54 46.8 °F /  8.2 °C 36 °F /  2.2 °C 30.6in /  1035.6hPa NE 0.9mph /  1.4km/h 4mph /  6.4km/h 66% 0in /  0.0mm 12 W/m2
17:59 46.6 °F /  8.1 °C 35.8 °F /  2.1 °C 30.6in /  1035.6hPa ENE 0.9mph /  1.4km/h 3mph /  4.8km/h 66% 0in /  0.0mm 11 W/m2
18:04 46.2 °F /  7.9 °C 36 °F /  2.2 °C 30.6in /  1035.6hPa ENE 2.9mph /  4.7km/h 4mph /  6.4km/h 67% 0in /  0.0mm 9 W/m2
18:09 46.2 °F /  7.9 °C 36 °F /  2.2 °C 30.6in /  1035.6hPa Calm   4mph /  6.4km/h 67% 0in /  0.0mm 7 W/m2
18:14 46 °F /  7.8 °C 35.8 °F /  2.1 °C 30.6in /  1035.6hPa ESE 8.9mph /  14.3km/h 9mph /  14.5km/h 67% 0in /  0.0mm 5 W/m2
18:19 45.9 °F /  7.7 °C 36 °F /  2.2 °C 30.6in /  1035.6hPa NE 2mph /  3.2km/h 4mph /  6.4km/h 68% 0in /  0.0mm 0 W/m2
18:24 45.9 °F /  7.7 °C 36 °F /  2.2 °C 30.6in /  1035.6hPa NW 9mph /  14.5km/h 9mph /  14.5km/h 68% 0in /  0.0mm 0 W/m2
18:29 45.7 °F /  7.6 °C 36.1 °F /  2.3 °C 30.6in /  1035.6hPa WNW 4mph /  6.4km/h 6mph /  9.7km/h 69% 0in /  0.0mm 0 W/m2
18:34 45.5 °F /  7.5 °C 36 °F /  2.2 °C 30.6in /  1035.6hPa South 2mph /  3.2km/h 6mph /  9.7km/h 69% 0in /  0.0mm 0 W/m2
18:39 45.3 °F /  7.4 °C 36.1 °F /  2.3 °C 30.6in /  1035.6hPa NNE 0.9mph /  1.4km/h 3mph /  4.8km/h 70% 0in /  0.0mm 0 W/m2
18:44 45.1 °F /  7.3 °C 36 °F /  2.2 °C 30.6in /  1035.9hPa NE 4mph /  6.4km/h 4mph /  6.4km/h 70% 0in /  0.0mm 0 W/m2
18:49 45 °F /  7.2 °C 36.1 °F /  2.3 °C 30.6in /  1035.6hPa Calm   3mph /  4.8km/h 71% 0in /  0.0mm 0 W/m2
18:54 45 °F /  7.2 °C 36.1 °F /  2.3 °C 30.6in /  1035.6hPa NNW 0.9mph /  1.4km/h 3mph /  4.8km/h 71% 0in /  0.0mm 0 W/m2
18:59 44.8 °F /  7.1 °C 36 °F /  2.2 °C 30.6in /  1035.9hPa South 0.9mph /  1.4km/h 3mph /  4.8km/h 71% 0in /  0.0mm 0 W/m2
19:04 44.6 °F /  7 °C 36.1 °F /  2.3 °C 30.6in /  1035.6hPa SW 2mph /  3.2km/h 3mph /  4.8km/h 72% 0in /  0.0mm 0 W/m2
19:09 44.4 °F /  6.9 °C 36 °F /  2.2 °C 30.6in /  1035.9hPa East 2.9mph /  4.7km/h 6mph /  9.7km/h 72% 0in /  0.0mm 0 W/m2
19:14 44.2 °F /  6.8 °C 36.1 °F /  2.3 °C 30.6in /  1035.6hPa NE 4mph /  6.4km/h 4mph /  6.4km/h 73% 0in /  0.0mm 0 W/m2
19:19 44.2 °F /  6.8 °C 36.1 °F /  2.3 °C 30.6in /  1035.9hPa NE 4mph /  6.4km/h 7mph /  11.3km/h 73% 0in /  0.0mm 0 W/m2
19:24 44.2 °F /  6.8 °C 36.5 °F /  2.5 °C 30.6in /  1035.9hPa Calm   8mph /  12.9km/h 74% 0in /  0.0mm 0 W/m2
19:29 44.1 °F /  6.7 °C 36.3 °F /  2.4 °C 30.6in /  1035.9hPa SE 0.9mph /  1.4km/h 4mph /  6.4km/h 74% 0in /  0.0mm 0 W/m2
19:34 44.1 °F /  6.7 °C 36.3 °F /  2.4 °C 30.6in /  1035.9hPa NE 0.9mph /  1.4km/h 8mph /  12.9km/h 74% 0in /  0.0mm 0 W/m2
19:39 43.9 °F /  6.6 °C 36.5 °F /  2.5 °C 30.6in /  1035.9hPa ENE 2mph /  3.2km/h 6mph /  9.7km/h 75% 0in /  0.0mm 0 W/m2
19:49 43.9 °F /  6.6 °C 36.5 °F /  2.5 °C 30.6in /  1035.9hPa ENE 2mph /  3.2km/h 6mph /  9.7km/h 75% 0in /  0.0mm 0 W/m2
19:54 43.7 °F /  6.5 °C 36.3 °F /  2.4 °C 30.6in /  1035.9hPa SE 0.9mph /  1.4km/h 3mph /  4.8km/h 75% 0in /  0.0mm 0 W/m2
19:59 43.5 °F /  6.4 °C 36.5 °F /  2.5 °C 30.6in /  1035.6hPa East 0.9mph /  1.4km/h 2mph /  3.2km/h 76% 0in /  0.0mm 0 W/m2
20:05 43.3 °F /  6.3 °C 36.3 °F /  2.4 °C 30.6in /  1035.6hPa Calm   3mph /  4.8km/h 76% 0in /  0.0mm 0 W/m2
20:10 43.3 °F /  6.3 °C 36.3 °F /  2.4 °C 30.6in /  1035.6hPa ESE 2.9mph /  4.7km/h 5mph /  8km/h 76% 0in /  0.0mm 0 W/m2
20:15 43.3 °F /  6.3 °C 36.3 °F /  2.4 °C 30.6in /  1035.6hPa ENE 0.9mph /  1.4km/h 5mph /  8km/h 76% 0in /  0.0mm 0 W/m2
20:20 43.2 °F /  6.2 °C 36.1 °F /  2.3 °C 30.6in /  1035.6hPa East 0.9mph /  1.4km/h 5mph /  8km/h 76% 0in /  0.0mm 0 W/m2
20:30 43 °F /  6.1 °C 36.3 °F /  2.4 °C 30.6in /  1035.6hPa East 2.9mph /  4.7km/h 4mph /  6.4km/h 77% 0in /  0.0mm 0 W/m2
20:35 43 °F /  6.1 °C 36.3 °F /  2.4 °C 30.6in /  1035.9hPa SE 2mph /  3.2km/h 7mph /  11.3km/h 77% 0in /  0.0mm 0 W/m2
20:40 43 °F /  6.1 °C 36.3 °F /  2.4 °C 30.6in /  1035.9hPa SE 2mph /  3.2km/h 3mph /  4.8km/h 77% 0in /  0.0mm 0 W/m2
20:45 42.8 °F /  6 °C 36.1 °F /  2.3 °C 30.6in /  1035.6hPa NE 0.9mph /  1.4km/h 3mph /  4.8km/h 77% 0in /  0.0mm 0 W/m2
20:50 42.6 °F /  5.9 °C 36 °F /  2.2 °C 30.6in /  1035.6hPa Calm   7mph /  11.3km/h 77% 0in /  0.0mm 0 W/m2
20:55 42.6 °F /  5.9 °C 36.3 °F /  2.4 °C 30.6in /  1035.6hPa ESE 0.9mph /  1.4km/h 5mph /  8km/h 78% 0in /  0.0mm 0 W/m2
21:00 42.4 °F /  5.8 °C 36.1 °F /  2.3 °C 30.6in /  1035.6hPa ENE 0.9mph /  1.4km/h 3mph /  4.8km/h 78% 0in /  0.0mm 0 W/m2
21:10 42.4 °F /  5.8 °C 36.1 °F /  2.3 °C 30.6in /  1035.6hPa East 0.9mph /  1.4km/h 3mph /  4.8km/h 78% 0in /  0.0mm 0 W/m2
21:15 42.3 °F /  5.7 °C 36 °F /  2.2 °C 30.6in /  1035.9hPa WSW 0.9mph /  1.4km/h 2mph /  3.2km/h 78% 0in /  0.0mm 0 W/m2
21:30 42.1 °F /  5.6 °C 36 °F /  2.2 °C 30.6in /  1035.9hPa ENE 2.9mph /  4.7km/h 5mph /  8km/h 79% 0in /  0.0mm 0 W/m2
21:35 42.1 °F /  5.6 °C 36 °F /  2.2 °C 30.6in /  1035.9hPa ENE 0.9mph /  1.4km/h 6mph /  9.7km/h 79% 0in /  0.0mm 0 W/m2
21:40 41.9 °F /  5.5 °C 35.8 °F /  2.1 °C 30.6in /  1035.9hPa NE 2mph /  3.2km/h 3mph /  4.8km/h 79% 0in /  0.0mm 0 W/m2
21:45 41.7 °F /  5.4 °C 35.8 °F /  2.1 °C 30.6in /  1035.9hPa East 2mph /  3.2km/h 3mph /  4.8km/h 79% 0in /  0.0mm 0 W/m2
21:50 41.7 °F /  5.4 °C 35.8 °F /  2.1 °C 30.6in /  1035.9hPa Calm   2mph /  3.2km/h 79% 0in /  0.0mm 0 W/m2
21:55 41.5 °F /  5.3 °C 35.8 °F /  2.1 °C 30.6in /  1035.9hPa Calm   3mph /  4.8km/h 80% 0in /  0.0mm 0 W/m2
22:00 41.5 °F /  5.3 °C 35.8 °F /  2.1 °C 30.6in /  1035.9hPa Calm   3mph /  4.8km/h 80% 0in /  0.0mm 0 W/m2
22:05 41.4 °F /  5.2 °C 35.6 °F /  2 °C 30.6in /  1035.9hPa NNW 0.9mph /  1.4km/h 2mph /  3.2km/h 80% 0in /  0.0mm 0 W/m2
22:10 41.2 °F /  5.1 °C 35.4 °F /  1.9 °C 30.6in /  1035.9hPa Calm   3mph /  4.8km/h 80% 0in /  0.0mm 0 W/m2
22:15 41.2 °F /  5.1 °C 35.4 °F /  1.9 °C 30.6in /  1035.9hPa Calm   2mph /  3.2km/h 80% 0in /  0.0mm 0 W/m2
22:25 40.8 °F /  4.9 °C 35.1 °F /  1.7 °C 30.6in /  1035.9hPa ESE 2mph /  3.2km/h 2mph /  3.2km/h 80% 0in /  0.0mm 0 W/m2
22:30 40.8 °F /  4.9 °C 35.4 °F /  1.9 °C 30.6in /  1035.9hPa Calm   3mph /  4.8km/h 81% 0in /  0.0mm 0 W/m2
22:35 40.6 °F /  4.8 °C 35.2 °F /  1.8 °C 30.6in /  1035.9hPa SE 0.9mph /  1.4km/h 3mph /  4.8km/h 81% 0in /  0.0mm 0 W/m2
22:40 40.6 °F /  4.8 °C 35.2 °F /  1.8 °C 30.6in /  1036.2hPa ENE 2mph /  3.2km/h 4mph /  6.4km/h 81% 0in /  0.0mm 0 W/m2
22:45 40.5 °F /  4.7 °C 35.1 °F /  1.7 °C 30.6in /  1036.2hPa ESE 0.9mph /  1.4km/h 2mph /  3.2km/h 81% 0in /  0.0mm 0 W/m2
22:50 40.5 °F /  4.7 °C 35.1 °F /  1.7 °C 30.6in /  1035.9hPa ENE 2mph /  3.2km/h 3mph /  4.8km/h 81% 0in /  0.0mm 0 W/m2
22:55 40.5 °F /  4.7 °C 35.4 °F /  1.9 °C 30.6in /  1035.9hPa Calm   4mph /  6.4km/h 82% 0in /  0.0mm 0 W/m2
23:00 40.5 °F /  4.7 °C 35.4 °F /  1.9 °C 30.6in /  1035.9hPa ENE 0.9mph /  1.4km/h 2mph /  3.2km/h 82% 0in /  0.0mm 0 W/m2
23:10 39.9 °F /  4.4 °C 34.9 °F /  1.6 °C 30.6in /  1036.2hPa Calm   1mph /  1.6km/h 82% 0in /  0.0mm 0 W/m2
23:15 39.7 °F /  4.3 °C 34.7 °F /  1.5 °C 30.6in /  1036.2hPa East 0.9mph /  1.4km/h 2mph /  3.2km/h 82% 0in /  0.0mm 0 W/m2
23:25 39.2 °F /  4 °C 34.5 °F /  1.4 °C 30.6in /  1036.2hPa Calm   2mph /  3.2km/h 83% 0in /  0.0mm 0 W/m2
23:30 38.8 °F /  3.8 °C 34.2 °F /  1.2 °C 30.6in /  1036.2hPa Calm     83% 0in /  0.0mm 0 W/m2
23:35 38.5 °F /  3.6 °C 34.2 °F /  1.2 °C 30.6in /  1036.2hPa Calm   1mph /  1.6km/h 84% 0in /  0.0mm 0 W/m2
23:40 38.5 °F /  3.6 °C 34.3 °F /  1.3 °C 30.6in /  1036.2hPa ENE 0.9mph /  1.4km/h 4mph /  6.4km/h 85% 0in /  0.0mm 0 W/m2
23:50 38.5 °F /  3.6 °C 34.3 °F /  1.3 °C 30.6in /  1036.2hPa Calm   2mph /  3.2km/h 85% 0in /  0.0mm 0 W/m2
23:55 38.5 °F /  3.6 °C 34.3 °F /  1.3 °C 30.6in /  1036.2hPa ESE 0.9mph /  1.4km/h 3mph /  4.8km/h 85% 0in /  0.0mm 0 W/m2
Juneau County Weather
Compliments of Weather Underground - 2 mb